»·PEaware :: ASU3 KSBA-KSNA

ASU3 :: KSBA-KSNA

FLIGHT INFORMATION

Flight Status: Arrived
Operator:
Arizona State University
More flights by this operator :: More flights under this callsign
Pilot: Arizona State University (3812)
Aircraft: BEECH AIRCRAFT SUPER KING AIR COMMUTER
(BE20)
More flights by this aircraft type
Origin: KSBA Santa Barbara Mun
United States
Destination: KSNA John Wayne-Orange Co
United States
More flights between these airports :: More routes between these airports
Route: +KWANG VTU V208 SXC SLI
File this flight plan on PilotEdge
Remarks: Callsign SunDevil 3. * Request ILS RWY20R at KSNA* Wx is 300 / 1
Altitude:
(Current/Filed)
9,000ft
Speed:
(Current/Filed)
240kts
Departed: 03-Dec-19 09:56 AM
Arrived: 03-Dec-19 10:36 AM
Distance/Time
Traveled:
108nm/0:39
Distance/Time
To Go:
Arrived

Flight Plot

Page will automatically refresh every two minutes.


Map Options




Map Legend


Flown Route
Filed Route
Departure Airport
Arrival Airport
Navaid (VOR, NDB)
Fix

Horizontal Profiles

Position Reports

Time Latitude Longitude Heading Altitude Ground
Speed
03-Dec-19 09:42 34.424054 -119.835894 258 14ft 2kts
03-Dec-19 09:43 34.424054 -119.835894 258 14ft 2kts
03-Dec-19 09:44 34.424054 -119.835894 258 14ft 2kts
03-Dec-19 09:45 34.424054 -119.835894 258 14ft 2kts
03-Dec-19 09:46 34.424054 -119.835894 258 14ft 3kts
03-Dec-19 09:47 34.424054 -119.835894 258 14ft 2kts
03-Dec-19 09:48 34.424054 -119.835894 258 14ft 3kts
03-Dec-19 09:49 34.424054 -119.835894 258 14ft 2kts
03-Dec-19 09:50 34.424054 -119.835894 258 14ft 2kts
03-Dec-19 09:51 34.424054 -119.835894 258 14ft 1kts
03-Dec-19 09:52 34.424908 -119.836849 343 14ft 18kts
03-Dec-19 09:53 34.430884 -119.839066 291 14ft 10kts
03-Dec-19 09:54 34.430804 -119.839507 243 14ft 2kts
03-Dec-19 09:55 34.427975 -119.839500 165 14ft 55kts
03-Dec-19 09:56 34.395256 -119.827065 163 2038ft 168kts
03-Dec-19 09:57 34.350733 -119.802506 149 4276ft 178kts
03-Dec-19 09:58 34.306688 -119.771945 152 6730ft 183kts
03-Dec-19 09:59 34.263576 -119.740017 126 8991ft 198kts
03-Dec-19 10:00 34.223683 -119.677566 129 9002ft 260kts
03-Dec-19 10:01 34.178146 -119.609185 129 9000ft 266kts
03-Dec-19 10:02 34.132242 -119.540003 130 9000ft 267kts
03-Dec-19 10:03 34.086298 -119.471018 129 9000ft 267kts
03-Dec-19 10:04 34.040237 -119.402125 129 9000ft 268kts
03-Dec-19 10:05 33.994075 -119.332903 130 9000ft 267kts
03-Dec-19 10:06 33.947941 -119.264097 129 9000ft 267kts
03-Dec-19 10:07 33.901783 -119.195363 130 9000ft 267kts
03-Dec-19 10:08 33.855478 -119.126352 130 9000ft 267kts
03-Dec-19 10:09 33.809161 -119.057794 129 9000ft 267kts
03-Dec-19 10:10 33.762900 -118.989199 130 9000ft 268kts
03-Dec-19 10:11 33.716455 -118.920424 130 9000ft 268kts
03-Dec-19 10:12 33.670030 -118.852101 129 9000ft 268kts
03-Dec-19 10:13 33.623551 -118.783491 130 9000ft 268kts
03-Dec-19 10:14 33.577119 -118.715157 130 9000ft 267kts
03-Dec-19 10:15 33.530628 -118.647113 129 9000ft 267kts
03-Dec-19 10:16 33.483956 -118.578644 130 9000ft 267kts
03-Dec-19 10:17 33.468521 -118.497177 65 9003ft 261kts
03-Dec-19 10:18 33.503757 -118.418961 61 8365ft 250kts
03-Dec-19 10:19 33.536179 -118.347921 61 6864ft 229kts
03-Dec-19 10:20 33.567154 -118.280076 61 5364ft 223kts
03-Dec-19 10:21 33.596556 -118.215774 61 5008ft 227kts
03-Dec-19 10:22 33.630362 -118.141853 61 5000ft 260kts
03-Dec-19 10:23 33.665267 -118.065459 61 5000ft 261kts
03-Dec-19 10:24 33.719705 -118.009419 32 5000ft 262kts
03-Dec-19 10:25 33.780986 -117.962009 32 5000ft 262kts
03-Dec-19 10:26 33.842511 -117.914358 32 4574ft 265kts
03-Dec-19 10:27 33.888423 -117.852075 71 3073ft 224kts
03-Dec-19 10:28 33.881608 -117.793096 111 2985ft 178kts
03-Dec-19 10:29 33.846551 -117.765272 181 2994ft 154kts
03-Dec-19 10:30 33.807381 -117.785213 207 2707ft 155kts
03-Dec-19 10:31 33.769102 -117.809533 207 1989ft 133kts
03-Dec-19 10:32 33.738580 -117.828797 203 1331ft 123kts
03-Dec-19 10:33 33.708426 -117.847938 203 681ft 121kts
03-Dec-19 10:34 33.679174 -117.866512 204 84ft 112kts
03-Dec-19 10:35 33.672218 -117.872609 20 60ft 20kts
03-Dec-19 10:36 33.677020 -117.870516 231 60ft 3kts

Navigation Log

Ident Type
Flight plan parsing failed, navigation log unavailable